Time;durP1;ratioP1;P1;durP2;ratioP2;P2;SDS_P1;SDS_P2;PMS_P1;PMS_P2;Temp;Humidity;BMP_temperature;BMP_pressure;BME280_temperature;BME280_humidity;BME280_pressure;Samples;Min_cycle;Max_cycle;Signal;HPM_P1;HPM_P2
2022/05/31 00:00:54;;;;;;;5.90;3.63;;;;;;;10.38;70.90;100714.81;4912655;28;20015;-70
2022/05/31 00:03:19;;;;;;;3.65;3.35;;;;;;;10.31;70.42;100709.22;4948802;28;20062;-71
2022/05/31 00:05:44;;;;;;;5.07;3.92;;;;;;;10.43;69.66;100708.13;4946211;28;20026;-71
2022/05/31 00:08:10;;;;;;;5.47;3.47;;;;;;;10.41;69.54;100709.28;4928018;28;20043;-70
2022/05/31 00:10:35;;;;;;;3.47;3.25;;;;;;;10.39;69.65;100706.75;4928981;28;20473;-72
2022/05/31 00:13:01;;;;;;;3.15;2.90;;;;;;;10.58;68.69;100703.28;4911106;28;20025;-71
2022/05/31 00:15:26;;;;;;;4.97;3.28;;;;;;;10.64;68.68;100702.72;4934796;28;20026;-71
2022/05/31 00:17:51;;;;;;;3.75;3.45;;;;;;;10.57;69.59;100708.72;4925902;28;20050;-71
2022/05/31 00:20:17;;;;;;;5.25;3.17;;;;;;;10.63;68.40;100705.53;4924010;28;20353;-71
2022/05/31 00:22:43;;;;;;;3.45;3.08;;;;;;;10.58;67.93;100705.94;4925233;28;20749;-71
2022/05/31 00:25:08;;;;;;;3.55;3.25;;;;;;;10.63;68.00;100701.09;4908054;28;20504;-71
2022/05/31 00:27:34;;;;;;;3.70;2.80;;;;;;;10.63;67.38;100698.44;4923139;28;20859;-71
2022/05/31 00:29:59;;;;;;;3.20;2.90;;;;;;;10.72;66.42;100698.59;4924052;28;20027;-71
2022/05/31 00:32:27;;;;;;;4.47;2.85;;;;;;;10.73;65.94;100695.78;4941105;28;20019;-70
2022/05/31 00:34:53;;;;;;;2.83;2.63;;;;;;;10.73;65.39;100690.50;4907066;28;20030;-70
2022/05/31 00:37:19;;;;;;;4.22;3.30;;;;;;;10.80;65.97;100698.69;4924317;28;20018;-70
2022/05/31 00:39:44;;;;;;;3.53;2.60;;;;;;;10.84;65.08;100689.50;4924851;28;20863;-70
2022/05/31 00:42:12;;;;;;;2.85;2.63;;;;;;;10.81;65.34;100695.91;4940035;28;21012;-71
2022/05/31 00:44:37;;;;;;;4.60;2.50;;;;;;;10.77;64.88;100691.03;4934777;28;20918;-72
2022/05/31 00:47:03;;;;;;;3.65;2.65;;;;;;;10.85;64.95;100699.13;4959753;28;20038;-71
2022/05/31 00:49:32;;;;;;;4.28;2.53;;;;;;;10.74;64.87;100701.91;4962586;28;20114;-70
2022/05/31 00:52:04;;;;;;;3.92;2.67;;;;;;;10.86;65.52;100700.81;4947565;28;20023;-71
2022/05/31 00:54:30;;;;;;;7.10;2.67;;;;;;;10.89;65.82;100707.63;4928612;28;20034;-71
2022/05/31 00:56:56;;;;;;;3.40;2.55;;;;;;;10.87;65.91;100698.97;4945368;28;20413;-71
2022/05/31 00:59:24;;;;;;;3.25;2.50;;;;;;;10.90;66.28;100704.00;4942108;28;20770;-70
2022/05/31 01:01:52;;;;;;;3.50;2.50;;;;;;;10.83;65.25;100690.50;4915366;28;20023;-70
2022/05/31 01:04:18;;;;;;;2.95;2.67;;;;;;;10.85;65.88;100693.84;4906439;28;20031;-70
2022/05/31 01:06:43;;;;;;;2.78;2.58;;;;;;;10.90;66.05;100693.41;4908915;28;20122;-71
2022/05/31 01:09:08;;;;;;;2.60;2.40;;;;;;;10.88;66.96;100688.25;4926654;28;20089;-70
2022/05/31 01:11:41;;;;;;;3.28;2.92;;;;;;;10.79;66.55;100686.47;4923111;28;20017;-71
2022/05/31 01:14:07;;;;;;;3.13;2.60;;;;;;;10.86;66.00;100692.88;4910536;28;20104;-71
2022/05/31 01:16:32;;;;;;;3.50;2.42;;;;;;;10.96;64.52;100687.56;4936230;28;20008;-72
2022/05/31 01:18:57;;;;;;;2.60;2.40;;;;;;;10.93;64.72;100683.38;4910827;28;20432;-70
2022/05/31 01:21:23;;;;;;;7.00;2.50;;;;;;;10.87;66.30;100678.66;4929723;28;20106;-70
2022/05/31 01:23:56;;;;;;;2.50;2.30;;;;;;;10.76;67.28;100682.28;4912920;28;20018;-70
2022/05/31 01:26:46;;;;;;;2.92;2.60;;;;;;;10.75;68.06;100675.31;4945868;28;20890;-71
2022/05/31 01:29:30;;;;;;;2.70;2.50;;;;;;;10.74;67.85;100673.63;4947117;28;21061;-70
2022/05/31 01:31:58;;;;;;;2.92;2.63;;;;;;;10.81;68.20;100680.03;4946871;28;20949;-70
2022/05/31 01:34:36;;;;;;;2.67;2.47;;;;;;;10.73;68.19;100676.41;4930953;28;20019;-71
2022/05/31 01:37:02;;;;;;;3.13;2.65;;;;;;;10.76;68.34;100670.84;4929722;28;20093;-71
2022/05/31 01:40:07;;;;;;;3.03;2.50;;;;;;;10.59;68.69;100667.94;4948440;28;20181;-70
2022/05/31 01:42:40;;;;;;;2.58;2.30;;;;;;;10.52;69.57;100669.47;4894043;28;20577;-71
2022/05/31 01:45:26;;;;;;;2.58;2.38;;;;;;;10.44;69.02;100670.13;4902134;28;20031;-71
2022/05/31 01:47:53;;;;;;;3.00;2.80;;;;;;;10.42;68.62;100671.25;4940317;28;20517;-70
2022/05/31 01:50:19;;;;;;;5.20;2.70;;;;;;;10.40;68.89;100667.91;4909290;28;20127;-72
2022/05/31 01:52:44;;;;;;;3.20;2.63;;;;;;;10.38;69.35;100657.47;4913602;28;20027;-70
2022/05/31 01:55:10;;;;;;;3.88;2.70;;;;;;;10.33;69.94;100662.28;4898436;28;20013;-70
2022/05/31 01:57:35;;;;;;;2.90;2.70;;;;;;;10.47;68.93;100661.91;4929721;28;20105;-70
2022/05/31 02:00:04;;;;;;;2.92;2.70;;;;;;;10.30;68.91;100666.03;4931625;28;20015;-71
2022/05/31 02:02:30;;;;;;;2.83;2.25;;;;;;;10.28;69.21;100668.00;4938860;28;20630;-71
2022/05/31 02:04:55;;;;;;;2.47;2.25;;;;;;;10.22;69.43;100655.31;4967980;28;20852;-70
2022/05/31 02:07:22;;;;;;;3.20;2.30;;;;;;;10.24;69.84;100656.03;4955446;28;20096;-70
2022/05/31 02:09:49;;;;;;;2.60;2.13;;;;;;;10.24;69.89;100666.59;4936974;28;20555;-70
2022/05/31 02:12:14;;;;;;;4.30;2.38;;;;;;;10.29;70.60;100667.03;4969343;28;20339;-71
2022/05/31 02:14:40;;;;;;;2.58;2.38;;;;;;;10.41;69.23;100659.00;4957008;28;20007;-71
2022/05/31 02:17:06;;;;;;;2.58;2.20;;;;;;;10.35;69.79;100665.69;4950953;28;20107;-71
2022/05/31 02:19:32;;;;;;;2.63;2.42;;;;;;;10.29;69.83;100658.25;4938780;28;20035;-71
2022/05/31 02:21:59;;;;;;;4.68;2.30;;;;;;;10.29;70.40;100661.75;4937893;28;20003;-71
2022/05/31 02:24:25;;;;;;;5.05;2.40;;;;;;;10.24;71.09;100656.03;4953120;28;20255;-70
2022/05/31 02:26:50;;;;;;;2.50;2.30;;;;;;;10.22;71.59;100657.13;4945942;28;20024;-71
2022/05/31 02:29:17;;;;;;;2.60;2.40;;;;;;;10.17;71.56;100654.91;4976571;28;20002;-71
2022/05/31 02:31:43;;;;;;;5.13;2.40;;;;;;;10.17;70.70;100657.53;4946171;28;20072;-71
2022/05/31 02:34:09;;;;;;;2.72;2.35;;;;;;;10.07;71.45;100656.69;4946288;28;20023;-70
2022/05/31 02:36:35;;;;;;;3.42;2.38;;;;;;;10.09;70.95;100647.63;4947385;28;20003;-70
2022/05/31 02:39:00;;;;;;;2.30;2.10;;;;;;;10.15;71.00;100646.25;4944424;28;20489;-71
2022/05/31 02:41:26;;;;;;;3.60;2.20;;;;;;;10.09;70.90;100641.53;4942695;28;20011;-71
2022/05/31 02:43:52;;;;;;;2.95;2.25;;;;;;;10.16;71.18;100642.66;4945873;28;20034;-71
2022/05/31 02:46:17;;;;;;;2.35;2.03;;;;;;;10.16;71.35;100641.81;4981904;28;20015;-70
2022/05/31 02:48:43;;;;;;;2.97;2.50;;;;;;;10.25;71.76;100635.69;4967305;28;20705;-71
2022/05/31 02:51:08;;;;;;;2.28;2.17;;;;;;;10.17;71.94;100648.75;4964507;28;20481;-70
2022/05/31 02:53:33;;;;;;;2.60;2.40;;;;;;;10.07;72.20;100635.53;4948873;28;20006;-70
2022/05/31 02:55:59;;;;;;;2.60;2.45;;;;;;;10.13;72.31;100632.34;4949537;28;20025;-71
2022/05/31 02:58:25;;;;;;;3.70;2.45;;;;;;;10.14;72.04;100634.03;4966550;28;20104;-70
2022/05/31 03:00:50;;;;;;;2.42;2.22;;;;;;;10.21;72.40;100634.28;4939454;28;20007;-71
2022/05/31 03:03:15;;;;;;;3.33;2.20;;;;;;;10.28;72.38;100633.63;4945744;28;20452;-71
2022/05/31 03:05:41;;;;;;;2.55;2.10;;;;;;;10.30;70.24;100634.31;4944747;28;19999;-71
2022/05/31 03:08:06;;;;;;;2.70;2.50;;;;;;;10.45;69.45;100636.59;4948806;28;20451;-70
2022/05/31 03:10:33;;;;;;;3.03;2.15;;;;;;;10.26;70.02;100640.84;4950168;28;20027;-71
2022/05/31 03:12:59;;;;;;;7.93;2.90;;;;;;;10.48;69.95;100637.13;4929213;28;20854;-70
2022/05/31 03:15:24;;;;;;;3.53;2.20;;;;;;;10.37;70.66;100631.16;4961528;28;20006;-71
2022/05/31 03:17:53;;;;;;;2.80;2.53;;;;;;;10.20;71.42;100637.94;4950278;28;20502;-71
2022/05/31 03:20:27;;;;;;;6.47;2.33;;;;;;;10.30;71.20;100636.94;4964975;28;20933;-70
2022/05/31 03:22:56;;;;;;;3.25;2.40;;;;;;;10.10;71.34;100641.38;4967066;28;20427;-71
2022/05/31 03:25:23;;;;;;;3.33;2.55;;;;;;;10.05;71.28;100634.84;4947186;28;20999;-70
2022/05/31 03:27:48;;;;;;;2.45;2.22;;;;;;;9.96;71.96;100632.03;4947600;28;20046;-70
2022/05/31 03:30:13;;;;;;;4.47;2.63;;;;;;;9.97;72.78;100631.06;4949716;28;20234;-71
2022/05/31 03:32:39;;;;;;;3.80;2.60;;;;;;;9.87;73.50;100626.72;4949490;28;20015;-72
2022/05/31 03:35:05;;;;;;;4.22;2.55;;;;;;;9.86;73.15;100617.97;4965875;28;20753;-71
2022/05/31 03:37:30;;;;;;;3.30;2.45;;;;;;;9.88;73.22;100618.66;4929522;28;20515;-71
2022/05/31 03:39:55;;;;;;;3.35;2.13;;;;;;;9.87;73.74;100621.44;4946525;28;20444;-72
2022/05/31 03:42:21;;;;;;;2.40;2.20;;;;;;;9.77;73.85;100624.91;4962877;28;20014;-71
2022/05/31 03:44:46;;;;;;;2.83;2.30;;;;;;;9.77;73.53;100618.75;4947658;28;20976;-71
2022/05/31 03:47:11;;;;;;;2.65;2.10;;;;;;;9.80;73.77;100621.16;4947339;28;20474;-72
2022/05/31 03:49:37;;;;;;;3.65;2.38;;;;;;;9.75;73.00;100613.59;4946397;28;20767;-71
2022/05/31 03:52:02;;;;;;;3.83;2.42;;;;;;;9.88;73.02;100617.81;4965226;28;19998;-71
2022/05/31 03:54:28;;;;;;;3.10;2.53;;;;;;;9.80;74.54;100619.34;4947575;28;20661;-71
2022/05/31 03:56:53;;;;;;;3.10;2.20;;;;;;;10.03;74.47;100621.75;4947512;28;20018;-71
2022/05/31 03:59:18;;;;;;;2.58;2.30;;;;;;;9.85;74.86;100626.03;4948115;28;20015;-73
2022/05/31 04:01:44;;;;;;;2.63;2.20;;;;;;;9.94;74.09;100623.41;4948141;28;20341;-73
2022/05/31 04:04:10;;;;;;;2.65;2.40;;;;;;;9.94;73.83;100617.28;4948932;28;20095;-73
2022/05/31 04:06:36;;;;;;;4.40;3.38;;;;;;;9.92;74.35;100620.06;4948608;28;20074;-73
2022/05/31 04:09:02;;;;;;;5.05;2.60;;;;;;;9.93;74.65;100611.16;4948959;28;20979;-73
2022/05/31 04:11:27;;;;;;;3.55;2.30;;;;;;;9.96;74.97;100623.28;4927040;28;20282;-73
2022/05/31 04:13:54;;;;;;;3.15;2.65;;;;;;;9.92;74.62;100620.06;4974996;28;20216;-73
2022/05/31 04:16:20;;;;;;;4.78;2.40;;;;;;;9.90;75.10;100611.44;4962828;28;20022;-73
2022/05/31 04:18:46;;;;;;;3.75;2.80;;;;;;;9.91;75.85;100620.19;4948908;28;20871;-73
2022/05/31 04:21:12;;;;;;;3.80;2.47;;;;;;;9.91;75.16;100618.41;4962959;28;20196;-72
2022/05/31 04:26:21;;;;;;;3.22;2.60;;;;;;;10.26;74.49;100619.69;4950168;28;20806;-72
2022/05/31 04:28:47;;;;;;;4.22;2.67;;;;;;;10.23;76.19;100619.13;4963520;28;20034;-73
2022/05/31 04:31:12;;;;;;;2.60;2.50;;;;;;;10.31;75.85;100620.13;4966829;28;20014;-72
2022/05/31 04:33:38;;;;;;;3.67;2.75;;;;;;;10.29;75.09;100619.44;4949077;28;20052;-73
2022/05/31 04:36:11;;;;;;;2.92;2.72;;;;;;;10.37;74.86;100624.06;4948834;28;20239;-73
2022/05/31 04:38:37;;;;;;;3.10;2.83;;;;;;;10.41;74.95;100620.16;4965106;28;20148;-75
2022/05/31 04:41:02;;;;;;;3.92;2.60;;;;;;;10.35;74.98;100619.88;4964314;28;20034;-72
2022/05/31 04:43:28;;;;;;;2.88;2.67;;;;;;;10.30;75.61;100618.44;4949379;28;20805;-73
2022/05/31 04:45:53;;;;;;;3.00;2.70;;;;;;;10.30;75.88;100609.69;4935242;28;20059;-72
2022/05/31 04:48:18;;;;;;;4.65;2.85;;;;;;;10.29;75.36;100614.16;4928392;28;20969;-72
2022/05/31 04:50:44;;;;;;;3.35;2.50;;;;;;;10.36;75.27;100618.91;4938651;28;20060;-72
2022/05/31 04:53:09;;;;;;;10.15;2.72;;;;;;;10.45;74.77;100626.84;4948252;28;20117;-72
2022/05/31 04:55:35;;;;;;;2.97;2.63;;;;;;;10.44;75.68;100630.44;4937599;28;20022;-72
2022/05/31 04:58:00;;;;;;;3.25;2.92;;;;;;;10.45;75.85;100631.31;4967779;28;20784;-73
2022/05/31 05:00:25;;;;;;;3.72;2.72;;;;;;;10.69;75.79;100630.03;4948763;28;20398;-72
2022/05/31 05:02:51;;;;;;;4.38;2.72;;;;;;;10.75;75.89;100638.25;4950198;28;20015;-72
2022/05/31 05:05:16;;;;;;;5.60;2.67;;;;;;;10.76;75.28;100633.78;4969216;28;20052;-73
2022/05/31 05:07:41;;;;;;;3.15;2.70;;;;;;;10.79;76.50;100633.53;4950066;28;20382;-72
2022/05/31 05:10:07;;;;;;;3.90;2.72;;;;;;;10.70;76.64;100635.19;4971972;28;20022;-72
2022/05/31 05:12:33;;;;;;;2.95;2.60;;;;;;;10.69;76.60;100637.97;4968341;28;20438;-73
2022/05/31 05:14:58;;;;;;;2.83;2.50;;;;;;;10.62;77.48;100633.25;4952462;28;20638;-72
2022/05/31 05:17:24;;;;;;;4.57;2.55;;;;;;;10.56;77.81;100630.31;4937072;28;20176;-72
2022/05/31 05:19:49;;;;;;;4.72;2.50;;;;;;;10.48;78.75;100629.19;4970663;28;20034;-71
2022/05/31 05:22:15;;;;;;;4.72;2.88;;;;;;;10.37;80.23;100628.50;4969741;28;20014;-71
2022/05/31 05:24:40;;;;;;;10.07;3.58;;;;;;;10.32;81.92;100621.78;4973060;28;20317;-73
2022/05/31 05:27:06;;;;;;;4.60;3.28;;;;;;;10.11;83.25;100623.69;4954119;28;20079;-72
2022/05/31 05:32:15;;;;;;;5.78;2.78;;;;;;;9.92;84.03;100620.06;4971741;28;20033;-72
2022/05/31 05:34:41;;;;;;;5.72;3.42;;;;;;;9.87;84.67;100619.63;4955702;28;20022;-72
2022/05/31 05:37:06;;;;;;;5.25;3.33;;;;;;;9.85;85.69;100626.84;4973641;28;20022;-72
2022/05/31 05:39:31;;;;;;;3.38;3.08;;;;;;;9.82;85.86;100629.78;4956836;28;21141;-72
2022/05/31 05:41:57;;;;;;;5.53;2.80;;;;;;;9.79;83.14;100627.41;4977205;28;20319;-73
2022/05/31 05:44:22;;;;;;;3.15;2.88;;;;;;;9.78;82.10;100607.22;4988918;28;20466;-73
2022/05/31 05:46:47;;;;;;;2.80;2.30;;;;;;;9.85;80.13;100608.34;4962057;28;20246;-70
2022/05/31 05:49:13;;;;;;;2.45;2.28;;;;;;;9.84;81.92;100603.19;4944732;28;20042;-73
2022/05/31 05:51:38;;;;;;;6.88;2.80;;;;;;;9.92;83.67;100601.53;4958306;28;20867;-72
2022/05/31 05:54:04;;;;;;;4.68;2.70;;;;;;;10.00;84.92;100605.31;4946401;28;20316;-72
2022/05/31 05:56:30;;;;;;;4.07;2.92;;;;;;;10.01;84.95;100607.00;4962911;28;20017;-72
2022/05/31 05:58:55;;;;;;;3.08;2.30;;;;;;;10.10;83.97;100603.53;4945799;28;20010;-72
2022/05/31 06:01:38;;;;;;;2.47;2.38;;;;;;;10.18;83.54;100605.47;4927920;28;20019;-72
2022/05/31 06:04:29;;;;;;;2.70;2.50;;;;;;;10.20;83.68;100596.44;4947241;28;20266;-73
2022/05/31 06:07:00;;;;;;;3.00;2.40;;;;;;;10.27;83.38;100596.75;4928782;28;20105;-72
2022/05/31 06:09:25;;;;;;;3.85;2.70;;;;;;;10.24;83.57;100595.19;4945344;28;20457;-72
2022/05/31 06:11:58;;;;;;;2.60;2.40;;;;;;;10.34;84.24;100595.25;4929031;28;20727;-73
2022/05/31 06:14:30;;;;;;;3.55;2.30;;;;;;;10.36;80.94;100605.69;4949333;28;20022;-72
2022/05/31 06:17:00;;;;;;;2.40;2.10;;;;;;;10.51;81.94;100612.22;4951573;28;20413;-73
2022/05/31 06:19:32;;;;;;;5.35;2.13;;;;;;;10.68;82.77;100621.25;4940729;28;20019;-73
2022/05/31 06:21:57;;;;;;;2.95;2.50;;;;;;;10.80;82.63;100629.88;4927776;28;20018;-73
2022/05/31 06:24:27;;;;;;;4.82;2.55;;;;;;;11.02;80.12;100631.38;4912141;28;20204;-74
2022/05/31 06:26:52;;;;;;;5.80;2.50;;;;;;;11.19;79.85;100624.50;4928105;28;20017;-73
2022/05/31 06:29:17;;;;;;;3.63;2.72;;;;;;;11.38;80.37;100617.47;4930465;28;20034;-73
2022/05/31 06:31:43;;;;;;;5.05;3.40;;;;;;;11.49;81.68;100622.59;4945627;28;20099;-73
2022/05/31 06:34:09;;;;;;;3.22;2.97;;;;;;;11.50;82.44;100621.63;4945528;28;20397;-73
2022/05/31 06:36:34;;;;;;;4.03;3.10;;;;;;;11.60;83.87;100625.06;4946291;28;20341;-74
2022/05/31 06:38:59;;;;;;;5.47;2.97;;;;;;;11.81;83.50;100618.69;4945128;28;20034;-72
2022/05/31 06:41:25;;;;;;;3.67;3.30;;;;;;;12.01;83.69;100614.13;4946463;28;20007;-72
2022/05/31 06:43:50;;;;;;;5.78;3.42;;;;;;;12.18;82.79;100618.63;4928768;28;20129;-73
2022/05/31 06:46:15;;;;;;;3.50;3.30;;;;;;;12.35;81.11;100621.44;4946741;28;20274;-72
2022/05/31 06:48:41;;;;;;;4.50;3.60;;;;;;;12.51;82.12;100626.06;4947566;28;20896;-72
2022/05/31 06:51:08;;;;;;;4.47;3.50;;;;;;;12.58;81.68;100619.16;4947040;28;20022;-72
2022/05/31 06:59:02;;;;;;;4.10;3.70;;;;;;;13.00;75.68;100622.94;4964448;28;20078;-72
2022/05/31 07:01:37;;;;;;;4.57;3.42;;;;;;;13.15;72.43;100636.50;4930839;28;20279;-72
2022/05/31 07:04:02;;;;;;;6.72;3.42;;;;;;;13.44;74.15;100643.34;4965106;28;20023;-72
2022/05/31 07:06:28;;;;;;;5.20;3.80;;;;;;;13.48;73.72;100644.69;4947730;28;20400;-72
2022/05/31 07:08:53;;;;;;;5.28;3.65;;;;;;;13.46;73.73;100647.50;4943971;28;20212;-72
2022/05/31 07:11:19;;;;;;;5.70;3.17;;;;;;;13.40;71.57;100638.34;4963733;28;20295;-73
2022/05/31 07:13:45;;;;;;;4.53;3.60;;;;;;;13.44;72.50;100627.38;4961166;28;20089;-73
2022/05/31 07:16:10;;;;;;;6.75;3.15;;;;;;;13.41;72.64;100639.19;4955534;28;20014;-73
2022/05/31 07:18:35;;;;;;;4.15;2.95;;;;;;;13.34;70.96;100638.94;4949185;28;20027;-73
2022/05/31 07:21:01;;;;;;;4.10;2.83;;;;;;;13.53;71.28;100637.91;4965639;28;20768;-74
2022/05/31 07:23:26;;;;;;;6.45;2.92;;;;;;;13.61;70.14;100649.56;4963823;28;20627;-74
2022/05/31 07:25:52;;;;;;;3.90;3.22;;;;;;;13.80;68.94;100632.53;4965534;28;20992;-72
2022/05/31 07:28:18;;;;;;;4.20;3.20;;;;;;;13.91;69.50;100640.22;4963656;28;20045;-72
2022/05/31 07:30:43;;;;;;;3.40;3.10;;;;;;;13.92;69.47;100628.59;4931026;28;20022;-73
2022/05/31 07:33:08;;;;;;;5.13;2.85;;;;;;;13.85;70.11;100627.59;4948888;28;20879;-72
2022/05/31 07:35:34;;;;;;;5.22;2.75;;;;;;;13.82;68.32;100630.53;4965802;28;20246;-73
2022/05/31 07:37:59;;;;;;;5.47;2.92;;;;;;;13.79;68.00;100628.22;4965018;28;20011;-72
2022/05/31 07:40:24;;;;;;;2.83;2.53;;;;;;;13.85;68.94;100624.94;4946628;28;20806;-72
2022/05/31 07:42:50;;;;;;;5.05;3.00;;;;;;;13.84;69.87;100628.56;4964324;28;20015;-72
2022/05/31 07:45:15;;;;;;;5.28;3.03;;;;;;;13.83;70.57;100629.56;4963612;28;20486;-72
2022/05/31 07:47:41;;;;;;;3.33;3.03;;;;;;;13.81;70.75;100623.59;4964979;28;20046;-73
2022/05/31 07:50:06;;;;;;;2.90;2.70;;;;;;;13.78;73.02;100631.88;4942540;28;19998;-72
2022/05/31 07:52:33;;;;;;;3.30;3.00;;;;;;;13.64;72.48;100635.97;4928342;28;21062;-72
2022/05/31 07:54:58;;;;;;;3.80;3.03;;;;;;;13.56;73.04;100626.13;4945406;28;20825;-72
2022/05/31 08:00:08;;;;;;;3.47;2.83;;;;;;;13.31;77.58;100618.00;4965869;28;20783;-73
2022/05/31 08:02:33;;;;;;;4.15;2.85;;;;;;;13.19;78.93;100614.78;4931986;28;20065;-73
2022/05/31 08:05:00;;;;;;;4.03;2.70;;;;;;;13.13;79.08;100618.06;4965633;28;19998;-73
2022/05/31 08:07:25;;;;;;;4.30;2.90;;;;;;;13.21;79.02;100614.63;4965537;28;20007;-73
2022/05/31 08:09:50;;;;;;;3.15;2.85;;;;;;;13.18;77.32;100628.22;4948770;28;20143;-73
2022/05/31 08:12:16;;;;;;;4.40;2.80;;;;;;;13.19;77.32;100624.56;4968433;28;20073;-74
2022/05/31 08:14:41;;;;;;;4.13;2.95;;;;;;;13.15;76.54;100628.53;4966443;28;20026;-73
2022/05/31 08:17:06;;;;;;;4.88;2.65;;;;;;;13.25;75.34;100620.47;4950958;28;20315;-73
2022/05/31 08:19:32;;;;;;;2.80;2.53;;;;;;;13.22;73.60;100632.22;4967991;28;20285;-72
2022/05/31 08:21:57;;;;;;;3.35;2.80;;;;;;;13.25;75.35;100621.28;4970825;28;20006;-73
2022/05/31 08:24:23;;;;;;;3.10;2.63;;;;;;;13.29;77.94;100630.59;4967899;28;20824;-73
2022/05/31 08:26:48;;;;;;;2.90;2.70;;;;;;;13.37;78.43;100628.03;4935594;28;20401;-73
2022/05/31 08:29:14;;;;;;;4.85;2.95;;;;;;;13.23;79.11;100617.97;4954854;28;20072;-72
2022/05/31 08:31:40;;;;;;;2.70;2.50;;;;;;;13.16;80.01;100608.97;4953099;28;20030;-73
2022/05/31 08:34:06;;;;;;;3.97;3.10;;;;;;;13.01;81.27;100606.84;4916808;28;20130;-72
2022/05/31 08:36:31;;;;;;;6.78;6.13;;;;;;;12.97;81.76;100599.34;4950123;28;20038;-72
2022/05/31 08:38:57;;;;;;;4.80;4.40;;;;;;;12.94;81.74;100605.81;4918598;28;20049;-72
2022/05/31 08:41:32;;;;;;;6.18;5.78;;;;;;;12.83;81.89;100604.25;4953891;28;20007;-72
2022/05/31 08:44:03;;;;;;;7.65;6.18;;;;;;;12.79;83.05;100599.41;4956967;28;20806;-72
2022/05/31 08:47:01;;;;;;;6.88;6.28;;;;;;;12.87;83.31;100602.97;4963689;28;20960;-72
2022/05/31 08:52:57;;;;;;;4.78;4.28;;;;;;;12.83;82.74;100606.91;4952471;28;20950;-73
2022/05/31 08:58:16;;;;;;;9.13;5.43;;;;;;;12.95;82.04;100602.19;4955999;28;20060;-73
2022/05/31 09:00:42;;;;;;;8.60;5.80;;;;;;;13.03;82.12;100594.25;4952814;28;20010;-72
2022/05/31 09:03:29;;;;;;;7.10;6.40;;;;;;;13.13;81.14;100603.94;4945028;28;20022;-74
2022/05/31 09:06:02;;;;;;;4.00;2.95;;;;;;;13.16;79.34;100611.63;4911775;28;20018;-73
2022/05/31 09:08:36;;;;;;;3.63;3.33;;;;;;;13.16;79.27;100609.78;4926537;28;20061;-73
2022/05/31 09:11:08;;;;;;;3.33;3.03;;;;;;;13.25;79.40;100609.84;4944961;28;20019;-72
2022/05/31 09:13:38;;;;;;;4.38;3.92;;;;;;;13.20;78.50;100610.31;4929715;28;20064;-73
2022/05/31 09:16:29;;;;;;;2.85;2.63;;;;;;;13.22;75.66;100621.59;4962219;28;20023;-73
2022/05/31 09:19:00;;;;;;;3.00;2.60;;;;;;;13.23;76.09;100625.94;4932563;28;20023;-72
2022/05/31 09:21:27;;;;;;;2.58;2.40;;;;;;;13.24;74.90;100638.25;4946291;28;20021;-72
2022/05/31 09:23:53;;;;;;;4.75;2.90;;;;;;;13.28;75.71;100636.09;4946767;28;20155;-72
2022/05/31 09:26:30;;;;;;;2.80;2.50;;;;;;;13.33;76.21;100621.34;4944715;28;20033;-73
2022/05/31 09:29:04;;;;;;;3.72;2.50;;;;;;;13.32;78.25;100622.31;4962815;28;20033;-73
2022/05/31 09:31:38;;;;;;;6.57;4.05;;;;;;;13.47;78.13;100619.13;4963656;28;20485;-73
2022/05/31 09:34:41;;;;;;;6.15;5.50;;;;;;;13.61;79.51;100605.22;4963570;28;20397;-71
2022/05/31 09:37:14;;;;;;;4.82;2.95;;;;;;;13.73;78.33;100593.31;4965548;28;20841;-72
2022/05/31 09:39:47;;;;;;;2.92;2.65;;;;;;;13.82;77.98;100593.31;4963103;28;20611;-73
2022/05/31 09:42:21;;;;;;;;;;;;;;;13.90;77.75;100586.22;4946038;28;19999;-73
2022/05/31 09:44:49;;;;;;;4.97;3.00;;;;;;;14.30;76.52;100581.13;4980376;28;19909;-73
2022/05/31 09:47:26;;;;;;;3.40;3.10;;;;;;;14.82;77.41;100579.13;4948168;28;20026;-73
2022/05/31 09:49:52;;;;;;;3.67;3.47;;;;;;;15.27;76.67;100577.69;4961599;28;20088;-73
2022/05/31 09:52:30;;;;;;;3.50;2.70;;;;;;;15.72;74.76;100581.50;4946099;28;20041;-73
2022/05/31 09:58:08;;;;;;;2.70;2.30;;;;;;;17.28;66.24;100586.63;4946743;28;20057;-72
2022/05/31 10:00:38;;;;;;;2.55;2.20;;;;;;;17.78;61.19;100594.88;4952492;28;20095;-72
2022/05/31 10:03:10;;;;;;;2.15;2.00;;;;;;;17.80;62.90;100588.31;4950255;28;20030;-73
2022/05/31 10:05:36;;;;;;;4.85;2.00;;;;;;;17.89;59.73;100588.22;4965331;28;20096;-72
2022/05/31 10:08:02;;;;;;;1.77;1.63;;;;;;;17.77;57.48;100585.19;4966145;28;20045;-72
2022/05/31 10:10:34;;;;;;;2.35;2.00;;;;;;;17.46;60.93;100592.44;4948218;28;20011;-72
2022/05/31 10:13:01;;;;;;;2.58;1.77;;;;;;;17.48;57.66;100597.59;4949756;28;20057;-73
2022/05/31 10:15:37;;;;;;;1.73;1.63;;;;;;;17.81;56.02;100581.94;4933205;28;20066;-72
2022/05/31 10:18:04;;;;;;;3.10;1.60;;;;;;;17.86;55.34;100576.03;4966889;28;20971;-73
2022/05/31 10:20:30;;;;;;;1.70;1.60;;;;;;;18.04;53.53;100580.16;4964131;28;20017;-73
2022/05/31 10:23:06;;;;;;;2.67;1.58;;;;;;;18.19;52.95;100579.09;4948128;28;20563;-72
2022/05/31 10:25:41;;;;;;;1.70;1.60;;;;;;;18.41;50.48;100576.38;4948095;28;20075;-72
2022/05/31 10:28:19;;;;;;;1.42;1.33;;;;;;;19.10;51.25;100572.19;4932622;28;20077;-73
2022/05/31 10:30:45;;;;;;;1.65;1.42;;;;;;;19.73;52.17;100569.38;4949181;28;20813;-72
2022/05/31 10:33:12;;;;;;;4.68;1.85;;;;;;;20.27;52.79;100564.16;4947556;28;20090;-74
2022/05/31 10:35:41;;;;;;;1.98;1.50;;;;;;;20.79;51.53;100564.38;4947526;28;20331;-73
2022/05/31 10:38:23;;;;;;;1.95;1.80;;;;;;;20.31;50.96;100569.97;4948664;28;20026;-73
2022/05/31 10:41:05;;;;;;;3.55;1.80;;;;;;;20.01;51.07;100570.31;4965005;28;20022;-73
2022/05/31 10:43:43;;;;;;;1.83;1.20;;;;;;;20.42;47.77;100566.66;4951489;28;20010;-74
2022/05/31 10:46:10;;;;;;;1.60;1.50;;;;;;;20.47;48.34;100553.41;4969361;28;20958;-73
2022/05/31 10:48:46;;;;;;;1.80;1.40;;;;;;;20.70;49.02;100562.94;4964729;28;20475;-72
2022/05/31 10:51:36;;;;;;;1.88;1.60;;;;;;;20.46;50.68;100554.47;4934673;28;21041;-73
2022/05/31 10:54:07;;;;;;;3.35;1.75;;;;;;;20.69;49.60;100555.94;4966632;28;20019;-73
2022/05/31 10:57:05;;;;;;;1.48;1.38;;;;;;;21.09;44.20;100551.31;4967284;28;20018;-73
2022/05/31 10:59:35;;;;;;;1.70;1.60;;;;;;;22.32;42.08;100553.16;4947984;28;20079;-74
2022/05/31 11:02:13;;;;;;;1.80;1.50;;;;;;;22.67;39.00;100550.81;4948286;28;20025;-74
2022/05/31 11:05:11;;;;;;;1.60;1.42;;;;;;;22.15;41.49;100536.72;4963848;28;20026;-73
2022/05/31 11:13:59;;;;;;;1.73;1.63;;;;;;;20.88;42.29;100548.84;4947863;28;20986;-73
2022/05/31 11:16:39;;;;;;;1.88;1.77;;;;;;;20.57;42.55;100548.47;4929656;28;20026;-73
2022/05/31 11:19:14;;;;;;;1.75;1.65;;;;;;;20.66;42.42;100553.59;4947731;28;20084;-73
2022/05/31 11:22:03;;;;;;;2.15;1.83;;;;;;;20.32;45.24;100552.78;4958594;28;20475;-73
2022/05/31 11:24:51;;;;;;;1.88;1.70;;;;;;;21.44;40.70;100555.53;4953313;28;20083;-73
2022/05/31 11:27:29;;;;;;;1.60;1.50;;;;;;;23.11;39.51;100548.09;4949694;28;20122;-73
2022/05/31 11:30:12;;;;;;;1.85;1.75;;;;;;;23.84;36.97;100549.91;4916503;28;20019;-73
2022/05/31 11:32:49;;;;;;;2.88;1.92;;;;;;;23.52;37.85;100546.63;4934491;28;20075;-74
2022/05/31 11:35:19;;;;;;;2.38;2.00;;;;;;;22.57;38.94;100550.50;4919070;28;20920;-74
2022/05/31 11:38:00;;;;;;;2.58;1.70;;;;;;;21.87;38.39;100546.00;4970838;28;20404;-73
2022/05/31 11:40:37;;;;;;;2.00;1.90;;;;;;;21.76;38.80;100547.53;4970554;28;20034;-73
2022/05/31 11:43:18;;;;;;;3.38;1.92;;;;;;;21.60;38.97;100547.00;4936049;28;20025;-73
2022/05/31 11:45:46;;;;;;;2.03;1.90;;;;;;;22.19;38.70;100549.53;4954593;28;20892;-73
2022/05/31 11:48:33;;;;;;;3.40;2.10;;;;;;;22.79;39.54;100548.22;4987915;28;20049;-74
2022/05/31 11:51:23;;;;;;;2.85;2.10;;;;;;;23.45;35.78;100546.69;4963635;28;20015;-73
2022/05/31 11:53:54;;;;;;;3.38;2.05;;;;;;;23.61;34.74;100545.22;4957271;28;20317;-73
2022/05/31 11:56:52;;;;;;;3.40;1.83;;;;;;;22.93;35.84;100533.56;4966445;28;20415;-73
2022/05/31 11:59:24;;;;;;;1.55;1.55;;;;;;;23.06;36.80;100531.75;4975280;28;20018;-73
2022/05/31 12:01:53;;;;;;;2.40;2.20;;;;;;;23.70;33.43;100542.22;4925756;28;20724;-73
2022/05/31 12:04:33;;;;;;;2.30;1.95;;;;;;;23.70;32.34;100534.09;4939100;28;20026;-72